Lumberton, NJ

1:57 AM EST on December 27, 2014 (GMT -0500)
NJ Weather Blogs | Change Station
CLOSE
Current Station
Personal Weather Station
Location: Mount Laurel, NJ
Elevation: 56 ft
Nearby Weather Stations

Elev 56 ft 39.99 °N, 74.86 °W | Updated 56 seconds ago

Clear
Clear
31.6 °F
Feels Like 32 °F
N
0.0
Wind Variable Wind from SSW
Gusts 0.0 mph

Today
High -- | Low -- °F
--% Chance of Precip.
Yesterday
High -- | Low -- °F
Precip. -- in
7:19 AM 4:40 PM
Waxing Crescent, 33% visible
Pressure 30.23 in
Visibility 10.0 miles
Clouds Clear
Windchill 32 °F
Dew Point 32 °F
Humidity 99%
Rainfall 0.00 in
Snow Depth Not available.
UV 0 out of 12
Pollen .10 out of 12
Air Quality Not available.
Flu Activity Not available.
METAR KVAY 270554Z AUTO 21004KT 10SM CLR 03/M01 A3022 RMK AO2 SLP235 T00281006 10044 20006 58013

More Conditions Fewer Conditions

Pressure 30.23 in
Visibility 10.0 miles
Clouds Clear
Windchill 32 °F
Dew Point 32 °F
Humidity 99%
Rainfall 0.00 in
Snow Depth Not available.
UV 0 out of 12
Pollen .10 out of 12
Air Quality Not available.
Flu Activity Not available.
METAR KVAY 270554Z AUTO 21004KT 10SM CLR 03/M01 A3022 RMK AO2 SLP235 T00281006 10044 20006 58013

More Conditions Fewer Conditions

10-Day Weather Forecast

Almanac

Astronomy

Dec. 27, 2014 Rise Set
Actual Time
Civil Twilight
Nautical Twilight
Astronomical Twilight
Moon
Length of Visible Light
Length of Day
Tomorrow will be .
, % of the Moon is Illuminated

Today's Extremes

State Highs State Lows

Community

WunderPhotos

Upload Photos

1,780,863 photos uploaded!

WunderBlogs® & News

Nearby

Air Quality

  Air Quality AQ Index Pollutant
Not available.

Snow Depth

Station Depth Elevation

Earthquake Activity

City Distance Mag. Time & Date
Minimum magnitude displayed is 2.5.

Coastal Water Temperatures

Place Temperature

Nearby Weather Stations